Time;durP1;ratioP1;P1;durP2;ratioP2;P2;SDS_P1;SDS_P2;PMS_P1;PMS_P2;Temp;Humidity;BMP_temperature;BMP_pressure;BME280_temperature;BME280_humidity;BME280_pressure;Samples;Min_cycle;Max_cycle;Signal;HPM_P1;HPM_P2
2023/02/05 00:00:42;;;;;;;5.70;3.80;;;;;;;-4.53;80.07;100282.95;105509;1253;62019;-72
2023/02/05 00:03:10;;;;;;;4.70;3.10;;;;;;;-4.40;79.87;100281.58;105685;1257;60552;-72
2023/02/05 00:05:38;;;;;;;5.90;3.60;;;;;;;-4.39;80.10;100282.77;105651;1256;74777;-72
2023/02/05 00:08:07;;;;;;;4.40;2.90;;;;;;;-4.41;80.34;100286.13;105635;1257;69563;-73
2023/02/05 00:10:35;;;;;;;7.10;3.50;;;;;;;-4.42;80.23;100289.09;105524;1257;73434;-72
2023/02/05 00:13:03;;;;;;;5.30;3.00;;;;;;;-4.45;80.35;100295.10;105579;1252;60440;-72
2023/02/05 00:15:31;;;;;;;7.30;3.40;;;;;;;-4.49;80.29;100295.10;105642;1254;60543;-72
2023/02/05 00:17:59;;;;;;;5.30;2.90;;;;;;;-4.52;80.46;100290.38;105809;1257;73545;-71
2023/02/05 00:20:28;;;;;;;5.20;3.00;;;;;;;-4.41;80.63;100292.70;105759;1254;69421;-72
2023/02/05 00:22:56;;;;;;;4.00;2.40;;;;;;;-4.27;80.10;100293.72;105756;1255;73940;-72
2023/02/05 00:25:25;;;;;;;5.60;3.20;;;;;;;-4.26;80.21;100292.13;105552;1256;61184;-72
2023/02/05 00:27:53;;;;;;;3.40;2.40;;;;;;;-4.28;80.52;100287.17;105635;1254;60458;-72
2023/02/05 00:30:21;;;;;;;5.50;3.30;;;;;;;-4.31;80.66;100285.56;105717;1256;74470;-72
2023/02/05 00:32:49;;;;;;;4.50;3.10;;;;;;;-4.35;80.83;100286.60;105661;1254;71293;-72
2023/02/05 00:35:17;;;;;;;5.70;3.10;;;;;;;-4.37;80.91;100289.45;105679;1256;73676;-72
2023/02/05 00:37:45;;;;;;;5.40;3.00;;;;;;;-4.39;80.97;100288.29;105699;1259;60427;-72
2023/02/05 00:40:14;;;;;;;4.90;3.00;;;;;;;-4.38;81.01;100291.54;105628;1257;60435;-72
2023/02/05 00:42:43;;;;;;;4.50;2.80;;;;;;;-4.24;80.87;100292.75;105560;1260;74083;-71
2023/02/05 00:45:11;;;;;;;4.10;2.70;;;;;;;-4.15;80.57;100295.15;105571;1255;70160;-73
2023/02/05 00:47:39;;;;;;;4.60;3.30;;;;;;;-4.13;80.77;100296.09;105612;1254;72394;-71
2023/02/05 00:50:07;;;;;;;5.60;2.50;;;;;;;-4.13;80.89;100298.70;105816;1257;60416;-70
2023/02/05 00:52:35;;;;;;;4.40;2.80;;;;;;;-4.16;80.80;100294.83;105727;1254;60470;-73
2023/02/05 00:55:04;;;;;;;4.40;2.90;;;;;;;-4.19;80.74;100295.83;105811;1257;75090;-72
2023/02/05 00:57:32;;;;;;;4.30;2.90;;;;;;;-4.27;80.84;100292.33;105595;1259;71618;-71
2023/02/05 01:00:00;;;;;;;4.50;3.30;;;;;;;-4.31;80.88;100288.85;105642;1257;71566;-72
2023/02/05 01:02:29;;;;;;;4.20;2.50;;;;;;;-4.22;80.80;100291.44;105597;1254;61354;-71
2023/02/05 01:04:58;;;;;;;5.20;2.80;;;;;;;-4.13;80.68;100289.19;105766;1254;60840;-72
2023/02/05 01:07:26;;;;;;;4.80;2.70;;;;;;;-4.12;80.90;100290.88;105529;1257;75057;-72
2023/02/05 01:09:54;;;;;;;4.40;3.00;;;;;;;-4.15;81.02;100289.96;105535;1257;70381;-72
2023/02/05 01:12:22;;;;;;;5.30;3.10;;;;;;;-4.20;81.12;100286.86;105502;1258;73894;-71
2023/02/05 01:14:51;;;;;;;5.20;2.90;;;;;;;-4.25;81.01;100286.70;105419;1267;60454;-72
2023/02/05 01:17:19;;;;;;;8.20;3.00;;;;;;;-4.30;81.28;100283.98;105703;1254;61358;-73
2023/02/05 01:19:47;;;;;;;3.80;2.80;;;;;;;-4.33;81.39;100280.98;105676;1255;74039;-72
2023/02/05 01:22:15;;;;;;;2.90;2.10;;;;;;;-4.22;81.23;100286.59;105691;1254;69285;-71
2023/02/05 01:24:43;;;;;;;4.30;2.50;;;;;;;-4.16;81.03;100286.54;105571;1258;73932;-72
2023/02/05 01:27:11;;;;;;;4.00;2.60;;;;;;;-4.20;81.24;100289.46;105721;1254;60473;-72
2023/02/05 01:29:40;;;;;;;4.80;3.40;;;;;;;-4.26;81.33;100290.58;105726;1254;61008;-71
2023/02/05 01:32:08;;;;;;;4.70;3.20;;;;;;;-4.33;81.35;100292.39;105590;1258;72757;-72
2023/02/05 01:34:37;;;;;;;5.40;3.50;;;;;;;-4.37;81.50;100293.60;105670;1257;71085;-71
2023/02/05 01:37:05;;;;;;;6.60;4.00;;;;;;;-4.39;81.79;100293.84;105774;1258;71842;-72
2023/02/05 01:39:36;;;;;;;5.60;3.40;;;;;;;-4.34;81.74;100292.78;105546;1254;60943;-72
2023/02/05 01:42:14;;;;;;;7.30;6.20;;;;;;;-4.24;81.58;100295.50;105656;1254;60643;-71
2023/02/05 01:44:42;;;;;;;10.60;8.20;;;;;;;-4.23;81.58;100297.38;105601;1261;73202;-72
2023/02/05 01:47:12;;;;;;;7.20;5.10;;;;;;;-4.28;81.81;100296.86;105531;1254;71664;-72
2023/02/05 01:49:41;;;;;;;5.40;3.90;;;;;;;-4.31;81.82;100297.67;105620;1259;71690;-72
2023/02/05 01:52:11;;;;;;;6.50;3.80;;;;;;;-4.36;81.95;100296.30;105682;1254;60531;-70
2023/02/05 01:54:42;;;;;;;5.80;3.10;;;;;;;-4.40;82.04;100302.49;105481;1253;60402;-71
2023/02/05 01:57:13;;;;;;;4.40;3.20;;;;;;;-4.41;82.18;100300.48;105568;1260;71608;-69
2023/02/05 01:59:41;;;;;;;4.20;2.90;;;;;;;-4.30;82.06;100304.54;105680;1257;69352;-72
2023/02/05 02:02:09;;;;;;;5.80;3.30;;;;;;;-4.19;81.95;100301.85;105400;1260;71656;-73
2023/02/05 02:04:40;;;;;;;5.70;2.90;;;;;;;-4.19;82.01;100304.79;105642;1254;60422;-73
2023/02/05 02:07:11;;;;;;;6.10;2.90;;;;;;;-4.23;82.00;100300.64;105733;1253;60547;-72
2023/02/05 02:09:40;;;;;;;5.00;3.00;;;;;;;-4.28;82.19;100297.90;105702;1257;74874;-72
2023/02/05 02:12:12;;;;;;;4.90;2.90;;;;;;;-4.30;82.25;100294.70;105674;1254;70374;-73
2023/02/05 02:14:41;;;;;;;4.80;3.00;;;;;;;-4.33;82.10;100298.78;105680;1254;70594;-72
2023/02/05 02:17:09;;;;;;;3.80;2.30;;;;;;;-4.26;82.00;100294.55;105669;1257;61275;-71
2023/02/05 02:19:57;;;;;;;4.00;2.80;;;;;;;-4.18;81.88;100290.06;105603;1256;60529;-72
2023/02/05 02:23:08;;;;;;;4.20;2.50;;;;;;;-4.18;82.09;100285.91;105692;1257;73619;-71
2023/02/05 02:26:00;;;;;;;3.50;2.10;;;;;;;-4.17;82.51;100285.51;104868;1264;68733;-72
2023/02/05 02:28:37;;;;;;;4.40;2.60;;;;;;;-4.17;82.25;100286.22;105115;1266;71636;-74
2023/02/05 02:31:16;;;;;;;4.20;3.30;;;;;;;-4.20;82.25;100287.56;105501;1259;60491;-72
2023/02/05 02:33:51;;;;;;;4.40;2.70;;;;;;;-4.20;82.40;100285.84;105450;1258;60400;-71
2023/02/05 02:36:22;;;;;;;4.90;2.60;;;;;;;-4.11;82.09;100286.52;105588;1257;74543;-72
2023/02/05 02:39:12;;;;;;;4.40;3.10;;;;;;;-3.97;81.93;100284.56;105646;1256;69316;-72
2023/02/05 02:41:42;;;;;;;4.40;2.60;;;;;;;-3.93;81.95;100288.04;105410;1257;71655;-71
2023/02/05 02:44:17;;;;;;;3.80;2.60;;;;;;;-3.94;82.00;100293.44;105605;1259;61092;-71
2023/02/05 02:46:47;;;;;;;3.00;2.40;;;;;;;-3.98;81.83;100294.11;105699;1254;60515;-72
2023/02/05 02:49:20;;;;;;;5.20;3.00;;;;;;;-4.02;81.84;100293.41;105519;1255;72590;-71
2023/02/05 02:51:48;;;;;;;4.40;3.20;;;;;;;-4.10;81.77;100289.93;105774;1255;70161;-72
2023/02/05 02:54:17;;;;;;;5.20;3.40;;;;;;;-4.08;81.75;100292.11;105573;1254;71898;-70
2023/02/05 02:56:46;;;;;;;4.50;3.20;;;;;;;-3.99;81.50;100296.58;105622;1254;60473;-72
2023/02/05 02:59:16;;;;;;;4.90;3.20;;;;;;;-3.98;81.55;100299.29;105627;1252;61151;-71
2023/02/05 03:01:47;;;;;;;5.90;3.40;;;;;;;-4.01;81.84;100301.34;105864;1256;73836;-72
2023/02/05 03:04:41;;;;;;;5.90;3.50;;;;;;;-4.03;81.92;100302.82;105577;1254;71667;-73
2023/02/05 03:07:16;;;;;;;6.30;3.50;;;;;;;-4.09;81.84;100306.50;105599;1253;73761;-72
2023/02/05 03:09:55;;;;;;;5.10;3.10;;;;;;;-4.17;81.87;100307.33;105515;1253;60546;-72
2023/02/05 03:12:28;;;;;;;3.70;2.90;;;;;;;-4.14;81.69;100310.14;105523;1254;60639;-72
2023/02/05 03:14:57;;;;;;;4.20;3.00;;;;;;;-4.00;81.93;100308.06;105557;1257;75019;-71
2023/02/05 03:17:25;;;;;;;4.20;2.90;;;;;;;-3.99;81.87;100310.77;105554;1257;70441;-71
2023/02/05 03:20:19;;;;;;;5.00;3.40;;;;;;;-4.02;82.06;100312.98;105694;1257;73756;-72
2023/02/05 03:22:47;;;;;;;5.30;3.30;;;;;;;-4.02;82.25;100307.80;105879;1253;60523;-73
2023/02/05 03:25:18;;;;;;;7.90;4.70;;;;;;;-4.02;82.11;100304.52;105710;1254;60585;-69
2023/02/05 03:27:47;;;;;;;4.90;3.10;;;;;;;-4.04;82.22;100300.04;105635;1254;72784;-72
2023/02/05 03:30:15;;;;;;;5.30;3.70;;;;;;;-4.05;81.91;100306.33;105574;1254;71385;-71
2023/02/05 03:33:02;;;;;;;6.20;3.60;;;;;;;-3.95;81.75;100309.05;105618;1257;71537;-71
2023/02/05 03:35:44;;;;;;;6.90;4.10;;;;;;;-3.87;81.68;100309.25;105573;1255;60502;-72
2023/02/05 03:38:29;;;;;;;5.30;3.90;;;;;;;-3.87;81.90;100308.71;105738;1254;60520;-73
2023/02/05 03:44:50;;;;;;;6.60;4.10;;;;;;;-3.92;81.99;100314.31;105622;1254;69982;-72
2023/02/05 03:47:58;;;;;;;5.00;3.00;;;;;;;-3.94;82.02;100319.58;105771;1254;72860;-73
2023/02/05 03:50:30;;;;;;;5.90;3.10;;;;;;;-3.90;81.87;100318.89;105236;1254;61947;-75
2023/02/05 03:53:28;;;;;;;6.00;3.20;;;;;;;-3.80;81.52;100318.30;106266;1256;60713;-75
2023/02/05 03:56:24;;;;;;;7.30;4.50;;;;;;;-3.81;81.49;100320.22;109336;1253;73889;-77
2023/02/05 03:58:54;;;;;;;7.50;6.10;;;;;;;-3.84;81.75;100323.35;108677;1254;71742;-73
2023/02/05 04:01:23;;;;;;;14.10;11.70;;;;;;;-3.88;81.79;100325.89;105986;1253;73833;-74
2023/02/05 04:03:51;;;;;;;9.30;7.10;;;;;;;-3.87;81.92;100325.88;105791;1254;60473;-73
2023/02/05 04:06:19;;;;;;;8.50;6.80;;;;;;;-3.89;81.69;100329.08;105588;1257;60443;-73
2023/02/05 04:08:48;;;;;;;5.70;4.60;;;;;;;-3.82;81.72;100329.14;105716;1253;74064;-74
2023/02/05 04:11:16;;;;;;;5.60;4.90;;;;;;;-3.74;81.59;100329.87;105751;1254;71539;-75
2023/02/05 04:13:46;;;;;;;8.60;7.20;;;;;;;-3.77;81.63;100329.08;105953;1252;73528;-73
2023/02/05 04:16:14;;;;;;;6.70;5.40;;;;;;;-3.80;81.89;100329.22;106389;1254;60444;-74
2023/02/05 04:18:43;;;;;;;5.20;4.20;;;;;;;-3.81;82.13;100330.45;106153;1254;60530;-76
2023/02/05 04:21:11;;;;;;;7.10;4.60;;;;;;;-3.84;82.16;100334.55;106158;1256;72831;-77
2023/02/05 04:23:40;;;;;;;8.50;5.30;;;;;;;-3.84;82.21;100339.76;106122;1257;70256;-73
2023/02/05 04:26:08;;;;;;;7.30;4.20;;;;;;;-3.83;82.26;100340.39;106306;1253;72787;-74
2023/02/05 04:28:42;;;;;;;;;;;;;;;-3.70;82.13;100337.09;105923;1253;60791;-76
2023/02/05 04:31:11;;;;;;;6.10;3.70;;;;;;;-3.55;81.87;100341.52;105939;1252;60960;-76
2023/02/05 04:33:40;;;;;;;6.80;4.90;;;;;;;-3.51;81.89;100345.68;105991;1254;74708;-75
2023/02/05 04:36:10;;;;;;;8.80;4.00;;;;;;;-3.50;82.02;100344.25;106053;1256;69701;-75
2023/02/05 04:38:38;;;;;;;7.20;4.10;;;;;;;-3.49;81.77;100342.50;105830;1254;72204;-76
2023/02/05 04:41:07;;;;;;;5.50;4.00;;;;;;;-3.53;81.69;100343.54;105756;1261;60434;-75
2023/02/05 04:43:35;;;;;;;5.70;4.40;;;;;;;-3.59;81.63;100343.93;106164;1256;60367;-76
2023/02/05 04:46:07;;;;;;;5.60;4.10;;;;;;;-3.61;81.77;100340.56;105931;1256;74186;-76
2023/02/05 04:48:36;;;;;;;5.20;3.40;;;;;;;-3.52;81.45;100342.63;105879;1254;69119;-76
2023/02/05 04:51:06;;;;;;;4.30;3.10;;;;;;;-3.47;81.07;100341.00;105937;1252;72696;-76
2023/02/05 04:53:34;;;;;;;6.90;5.10;;;;;;;-3.53;81.23;100339.38;106001;1253;60479;-77
2023/02/05 04:56:07;;;;;;;11.50;8.20;;;;;;;-3.60;81.54;100346.40;106002;1253;60493;-76
2023/02/05 04:58:35;;;;;;;11.40;9.40;;;;;;;-3.63;81.90;100344.95;106061;1254;74168;-73
2023/02/05 05:01:04;;;;;;;11.10;8.50;;;;;;;-3.65;82.02;100346.42;106206;1253;71474;-74
2023/02/05 05:03:32;;;;;;;8.80;5.20;;;;;;;-3.67;81.89;100350.65;105799;1254;72656;-75
2023/02/05 05:06:04;;;;;;;10.40;7.60;;;;;;;-3.65;81.78;100346.08;105935;1255;60450;-73
2023/02/05 05:08:33;;;;;;;13.50;9.90;;;;;;;-3.53;81.81;100346.14;105768;1257;61962;-74
2023/02/05 05:11:05;;;;;;;9.40;6.40;;;;;;;-3.53;81.95;100346.30;105897;1257;73443;-73
2023/02/05 05:13:34;;;;;;;10.20;6.30;;;;;;;-3.58;81.98;100348.08;105919;1257;71571;-74
2023/02/05 05:16:03;;;;;;;12.00;9.80;;;;;;;-3.61;82.26;100355.44;105913;1253;71895;-74
2023/02/05 05:18:32;;;;;;;16.20;11.40;;;;;;;-3.63;82.18;100351.56;106057;1257;60448;-75
2023/02/05 05:21:01;;;;;;;11.10;7.40;;;;;;;-3.66;82.31;100357.89;105961;1253;60435;-75
2023/02/05 05:23:30;;;;;;;7.70;5.70;;;;;;;-3.65;82.46;100361.48;106038;1252;74187;-74
2023/02/05 05:25:58;;;;;;;6.60;5.30;;;;;;;-3.52;82.20;100365.65;106107;1253;70243;-75
2023/02/05 05:28:26;;;;;;;7.00;4.70;;;;;;;-3.41;81.98;100364.84;106028;1252;71684;-74
2023/02/05 05:30:54;;;;;;;6.60;4.60;;;;;;;-3.41;81.93;100369.35;105857;1253;60895;-74
2023/02/05 05:33:22;;;;;;;8.00;5.50;;;;;;;-3.47;82.02;100370.81;105936;1254;60547;-75
2023/02/05 05:35:51;;;;;;;9.40;7.10;;;;;;;-3.54;82.14;100372.13;105707;1259;74110;-75
2023/02/05 05:38:19;;;;;;;6.70;5.10;;;;;;;-3.57;82.41;100369.48;105916;1254;71588;-74
2023/02/05 05:43:46;;;;;;;5.10;4.10;;;;;;;-3.64;82.38;100372.20;105973;1253;63177;-73
2023/02/05 05:46:22;;;;;;;6.60;4.90;;;;;;;-3.50;82.19;100377.17;105944;1252;60331;-74
2023/02/05 05:48:55;;;;;;;5.70;4.30;;;;;;;-3.46;82.14;100374.92;106009;1254;73425;-74
2023/02/05 05:51:24;;;;;;;6.90;5.00;;;;;;;-3.52;82.44;100377.23;105758;1253;69399;-74
2023/02/05 05:53:53;;;;;;;6.30;4.30;;;;;;;-3.55;82.75;100377.88;105622;1253;73841;-74
2023/02/05 05:56:21;;;;;;;7.40;5.40;;;;;;;-3.57;82.79;100382.11;105574;1253;60383;-74
2023/02/05 05:58:49;;;;;;;8.60;4.40;;;;;;;-3.59;83.02;100385.84;105511;1254;60986;-74
2023/02/05 06:01:19;;;;;;;5.60;4.00;;;;;;;-3.59;82.93;100384.46;105607;1256;74152;-75
2023/02/05 06:03:47;;;;;;;6.20;4.40;;;;;;;-3.52;82.68;100385.88;105930;1256;69387;-75
2023/02/05 06:06:15;;;;;;;6.10;4.50;;;;;;;-3.47;82.73;100386.90;105924;1254;73763;-73
2023/02/05 06:08:44;;;;;;;7.10;4.80;;;;;;;-3.47;83.21;100390.21;106102;1252;60427;-75
2023/02/05 06:11:12;;;;;;;6.50;5.00;;;;;;;-3.45;83.50;100392.88;105991;1255;60440;-73
2023/02/05 06:13:40;;;;;;;7.40;5.60;;;;;;;-3.43;83.49;100393.48;106338;1253;72060;-74
2023/02/05 06:16:08;;;;;;;7.10;4.90;;;;;;;-3.42;83.40;100396.58;106212;1254;68748;-74
2023/02/05 06:18:37;;;;;;;7.10;4.80;;;;;;;-3.43;83.15;100399.06;105963;1253;73553;-76
2023/02/05 06:21:05;;;;;;;7.40;4.90;;;;;;;-3.34;82.99;100406.80;105879;1256;60875;-75
2023/02/05 06:23:34;;;;;;;7.70;4.80;;;;;;;-3.27;82.87;100412.58;106330;1253;61273;-75
2023/02/05 06:26:03;;;;;;;8.70;5.10;;;;;;;-3.26;83.28;100408.73;106657;1253;291774;-75
2023/02/05 06:28:31;;;;;;;6.70;5.40;;;;;;;-3.26;83.40;100411.34;106084;1256;69418;-76
2023/02/05 06:31:45;;;;;;;6.70;5.50;;;;;;;-3.23;83.66;100415.71;102510;1292;600387;-75
2023/02/05 06:34:14;;;;;;;9.10;5.20;;;;;;;-3.24;83.60;100418.17;105016;1270;59472;-74
2023/02/05 06:36:42;;;;;;;7.60;5.50;;;;;;;-3.23;83.65;100422.80;104950;1266;60411;-75
2023/02/05 06:39:11;;;;;;;6.40;4.70;;;;;;;-3.20;83.59;100423.39;104739;1266;73693;-73
2023/02/05 06:41:39;;;;;;;9.70;5.20;;;;;;;-3.07;83.26;100426.14;104881;1268;68729;-74
2023/02/05 06:44:07;;;;;;;7.90;4.70;;;;;;;-2.98;83.25;100424.89;104942;1267;71516;-74
2023/02/05 06:46:35;;;;;;;6.70;5.10;;;;;;;-2.99;83.00;100429.27;105247;1263;178439;-78
2023/02/05 06:49:04;;;;;;;7.70;4.90;;;;;;;-3.05;83.13;100428.13;105273;1264;59618;-77
2023/02/05 06:51:32;;;;;;;8.00;5.80;;;;;;;-3.11;83.20;100434.29;105539;1265;72417;-77
2023/02/05 06:54:01;;;;;;;7.20;5.10;;;;;;;-3.18;83.25;100437.83;105592;1258;70159;-76
2023/02/05 06:56:29;;;;;;;8.20;6.00;;;;;;;-3.19;83.29;100442.94;105750;1257;71735;-77
2023/02/05 06:58:59;;;;;;;8.00;5.50;;;;;;;-3.08;83.53;100445.57;105364;1258;60838;-76
2023/02/05 07:01:27;;;;;;;8.40;6.80;;;;;;;-2.92;83.37;100446.48;105460;1258;59640;-76
2023/02/05 07:03:56;;;;;;;11.10;9.20;;;;;;;-2.87;83.46;100450.93;105718;1257;70966;-77
2023/02/05 07:06:25;;;;;;;12.80;8.20;;;;;;;-2.85;83.26;100446.54;106046;1257;70480;-77
2023/02/05 07:08:54;;;;;;;8.60;6.20;;;;;;;-2.84;83.24;100445.27;105906;1260;73879;-78
2023/02/05 07:11:23;;;;;;;8.00;6.30;;;;;;;-2.82;83.28;100446.56;105947;1257;60384;-76
2023/02/05 07:13:52;;;;;;;8.80;5.90;;;;;;;-2.79;83.17;100444.54;105896;1258;60302;-76
2023/02/05 07:16:21;;;;;;;8.00;5.40;;;;;;;-2.63;82.96;100448.36;105625;1258;74229;-75
2023/02/05 07:18:51;;;;;;;7.60;5.50;;;;;;;-2.45;82.70;100453.65;106326;1259;70453;-76
2023/02/05 07:21:21;;;;;;;8.20;6.00;;;;;;;-2.39;82.97;100460.16;107277;1257;72927;-77
2023/02/05 07:23:49;;;;;;;10.70;7.40;;;;;;;-2.36;82.67;100459.66;106324;1258;58975;-78
2023/02/05 07:26:18;;;;;;;8.40;6.30;;;;;;;-2.36;82.27;100462.08;106538;1257;60463;-76
2023/02/05 07:28:46;;;;;;;11.20;6.60;;;;;;;-2.41;81.72;100464.23;106284;1258;71916;-81
2023/02/05 07:31:15;;;;;;;9.50;6.20;;;;;;;-2.49;81.62;100464.05;106110;1257;70040;-74
2023/02/05 07:33:45;;;;;;;6.80;5.00;;;;;;;-2.41;81.63;100458.66;106415;1263;71659;-76
2023/02/05 07:36:15;;;;;;;9.50;5.70;;;;;;;-2.34;81.50;100458.56;106039;1258;60573;-77
2023/02/05 07:38:44;;;;;;;10.90;6.60;;;;;;;-2.35;81.80;100457.05;106005;1258;59187;-76
2023/02/05 07:41:13;;;;;;;12.70;7.10;;;;;;;-2.35;81.79;100457.38;105569;1263;72219;-76
2023/02/05 07:43:41;;;;;;;8.80;6.40;;;;;;;-2.32;82.19;100459.48;105659;1258;70401;-77
2023/02/05 07:46:11;;;;;;;9.70;7.20;;;;;;;-2.23;82.40;100464.64;105523;1257;72873;-77
2023/02/05 07:48:39;;;;;;;10.90;7.70;;;;;;;-2.14;82.22;100462.88;105610;1264;59616;-77
2023/02/05 07:51:07;;;;;;;7.80;5.90;;;;;;;-1.98;81.64;100463.15;105802;1263;59616;-77
2023/02/05 07:53:35;;;;;;;10.50;7.50;;;;;;;-1.81;81.23;100459.23;105623;1256;73168;-77
2023/02/05 07:56:03;;;;;;;8.40;6.50;;;;;;;-1.78;80.94;100465.72;105815;1256;71520;-77
2023/02/05 07:58:31;;;;;;;11.20;7.00;;;;;;;-1.77;80.91;100470.01;105703;1257;70527;-77
2023/02/05 08:01:02;;;;;;;10.90;7.60;;;;;;;-1.74;80.79;100467.78;105564;1255;60364;-77
2023/02/05 08:03:31;;;;;;;9.10;6.50;;;;;;;-1.73;80.50;100469.14;105559;1256;59782;-77
2023/02/05 08:06:04;;;;;;;8.40;5.90;;;;;;;-1.72;80.27;100472.22;105607;1256;74068;-77
2023/02/05 08:08:32;;;;;;;8.70;6.70;;;;;;;-1.62;79.88;100474.86;105681;1260;70400;-77
2023/02/05 08:11:02;;;;;;;10.70;6.20;;;;;;;-1.48;80.06;100477.66;105526;1256;71855;-76
2023/02/05 08:13:35;;;;;;;8.80;6.60;;;;;;;-1.45;79.55;100478.95;105615;1256;59990;-76
2023/02/05 08:16:05;;;;;;;10.10;6.50;;;;;;;-1.45;79.39;100477.19;105688;1257;61057;-76
2023/02/05 08:18:37;;;;;;;9.30;6.70;;;;;;;-1.42;79.64;100481.00;105796;1256;71331;-76
2023/02/05 08:21:05;;;;;;;9.00;6.90;;;;;;;-1.35;79.50;100487.67;105758;1256;70037;-78
2023/02/05 08:23:33;;;;;;;8.50;6.60;;;;;;;-1.28;79.68;100490.27;106183;1256;72506;-77
2023/02/05 08:26:02;;;;;;;8.20;6.00;;;;;;;-1.17;79.07;100494.28;107994;1256;60232;-77
2023/02/05 08:28:31;;;;;;;8.40;6.60;;;;;;;-0.97;78.74;100494.00;108410;1255;60648;-77
2023/02/05 08:31:09;;;;;;;8.40;6.40;;;;;;;-0.83;78.63;100501.12;106394;1256;71666;-78
2023/02/05 08:33:37;;;;;;;8.40;6.20;;;;;;;-0.78;78.14;100503.64;105948;1261;70404;-78
2023/02/05 08:36:06;;;;;;;8.40;6.30;;;;;;;-0.76;77.76;100504.27;105582;1256;72651;-78
2023/02/05 08:38:34;;;;;;;9.20;6.50;;;;;;;-0.78;77.32;100502.95;105562;1256;60336;-78
2023/02/05 08:41:11;;;;;;;8.40;6.80;;;;;;;-0.81;77.18;100507.78;105642;1262;60292;-78
2023/02/05 08:43:40;;;;;;;10.20;7.60;;;;;;;-0.85;76.99;100509.70;105532;1262;71959;-78
2023/02/05 08:46:09;;;;;;;7.60;5.30;;;;;;;-0.69;77.06;100512.44;105763;1256;69794;-78
2023/02/05 08:48:37;;;;;;;8.90;6.50;;;;;;;-0.53;76.75;100511.63;105763;1256;73605;-78
2023/02/05 08:51:08;;;;;;;8.00;6.50;;;;;;;-0.50;76.38;100517.88;105716;1259;59635;-75
2023/02/05 08:53:36;;;;;;;9.20;6.90;;;;;;;-0.48;76.33;100522.33;105437;1256;60412;-76
2023/02/05 08:56:05;;;;;;;9.00;6.50;;;;;;;-0.49;75.78;100523.91;105714;1262;74323;-74
2023/02/05 08:58:33;;;;;;;8.40;6.50;;;;;;;-0.55;75.86;100528.41;105566;1257;70738;-74
2023/02/05 09:01:07;;;;;;;9.80;7.60;;;;;;;-0.61;76.11;100522.42;105455;1256;72724;-74
2023/02/05 09:03:35;;;;;;;11.00;8.30;;;;;;;-0.69;76.10;100525.13;105651;1256;59683;-74
2023/02/05 09:06:07;;;;;;;10.20;7.10;;;;;;;-0.76;76.31;100523.75;105817;1258;59703;-71
2023/02/05 09:08:35;;;;;;;10.60;8.00;;;;;;;-0.71;75.89;100529.03;105437;1258;74249;-74
2023/02/05 09:11:04;;;;;;;9.20;7.50;;;;;;;-0.66;76.04;100527.91;105384;1253;71526;-73
2023/02/05 09:13:34;;;;;;;11.60;9.30;;;;;;;-0.67;76.43;100525.70;105482;1253;73644;-74
2023/02/05 09:16:03;;;;;;;14.00;10.10;;;;;;;-0.67;76.43;100526.55;105465;1253;59894;-73
2023/02/05 09:18:32;;;;;;;11.00;7.80;;;;;;;-0.67;76.29;100526.21;105623;1251;60060;-75
2023/02/05 09:21:00;;;;;;;10.10;7.80;;;;;;;-0.66;76.30;100527.94;105956;1253;73248;-73
2023/02/05 09:23:28;;;;;;;10.90;7.80;;;;;;;-0.66;76.55;100524.78;105800;1260;69684;-75
2023/02/05 09:25:59;;;;;;;10.00;7.50;;;;;;;-0.64;76.25;100522.08;105805;1253;72700;-73
2023/02/05 09:28:28;;;;;;;10.30;7.20;;;;;;;-0.57;75.94;100522.96;105855;1253;60871;-74
2023/02/05 09:30:56;;;;;;;8.80;6.90;;;;;;;-0.48;75.93;100527.18;106063;1253;61526;-75
2023/02/05 09:33:25;;;;;;;14.30;9.10;;;;;;;-0.47;75.95;100525.06;106001;1251;74026;-75
2023/02/05 09:35:53;;;;;;;11.20;8.40;;;;;;;-0.47;76.15;100518.25;106158;1253;70644;-74
2023/02/05 09:38:22;;;;;;;12.70;7.90;;;;;;;-0.46;75.98;100514.90;105865;1253;72220;-72
2023/02/05 09:40:58;;;;;;;10.40;7.60;;;;;;;-0.47;75.80;100511.30;105796;1253;59924;-74
2023/02/05 09:43:29;;;;;;;9.60;7.20;;;;;;;-0.49;75.68;100516.63;105981;1252;59934;-76
2023/02/05 09:46:00;;;;;;;;;;;;;;;-0.52;75.62;100515.23;106056;1254;73502;-75
2023/02/05 09:48:28;;;;;;;8.00;5.80;;;;;;;-0.50;75.35;100515.48;106001;1253;70605;-75
2023/02/05 10:14:19;;;;;;;8.40;6.40;;;;;;;-0.96;76.66;100542.10;102866;1292;600136;-80
2023/02/05 10:17:00;;;;;;;10.30;6.60;;;;;;;-0.88;76.60;100551.42;105207;1263;62516;-79
2023/02/05 10:19:53;;;;;;;7.70;6.40;;;;;;;-0.73;76.52;100551.08;105246;1263;59371;-79
2023/02/05 10:22:32;;;;;;;9.90;6.80;;;;;;;-0.77;76.57;100551.58;105239;1263;70151;-78
2023/02/05 10:25:47;;;;;;;12.20;6.90;;;;;;;-0.83;76.86;100557.30;105510;1259;71270;-76
2023/02/05 10:29:15;;;;;;;9.00;7.20;;;;;;;-0.85;77.14;100556.52;105472;1260;444404;-76
2023/02/05 10:31:53;;;;;;;10.70;7.60;;;;;;;-0.91;77.08;100552.45;105828;1260;59337;-77
2023/02/05 10:34:53;;;;;;;10.30;7.60;;;;;;;-0.96;77.20;100549.95;105672;1260;60786;-77
2023/02/05 10:37:28;;;;;;;9.90;7.60;;;;;;;-0.95;77.26;100555.61;106474;1256;70973;-77
2023/02/05 10:39:56;;;;;;;8.70;6.50;;;;;;;-0.83;77.40;100555.70;107133;1258;69214;-77
2023/02/05 10:42:31;;;;;;;10.00;7.10;;;;;;;-0.84;77.22;100556.98;106878;1256;70584;-79
2023/02/05 10:45:24;;;;;;;9.20;7.10;;;;;;;-0.93;77.20;100560.91;105629;1260;59631;-79
2023/02/05 10:48:18;;;;;;;10.00;7.70;;;;;;;-1.03;77.66;100561.20;105688;1256;61516;-79
2023/02/05 10:51:08;;;;;;;10.20;8.00;;;;;;;-1.08;78.12;100561.27;105561;1263;72409;-77
2023/02/05 10:53:37;;;;;;;10.80;7.70;;;;;;;-1.08;78.23;100564.91;105998;1256;69813;-77
2023/02/05 10:56:05;;;;;;;10.00;7.40;;;;;;;-1.02;78.03;100566.71;106888;1257;72891;-78
2023/02/05 10:58:53;;;;;;;7.80;6.90;;;;;;;-0.93;78.01;100564.23;106685;1263;59625;-77
2023/02/05 11:01:32;;;;;;;11.30;7.60;;;;;;;-0.92;78.21;100561.59;106518;1257;59481;-77
2023/02/05 11:04:12;;;;;;;10.30;7.70;;;;;;;-0.88;78.46;100567.63;105675;1257;72069;-79
2023/02/05 11:06:49;;;;;;;10.90;8.20;;;;;;;-0.84;78.19;100572.09;105586;1262;69457;-79
2023/02/05 11:09:23;;;;;;;10.10;8.10;;;;;;;-0.82;78.03;100573.94;105516;1258;71740;-79
2023/02/05 11:11:56;;;;;;;10.60;7.60;;;;;;;-0.83;78.08;100575.39;105459;1259;59724;-77
2023/02/05 11:14:37;;;;;;;9.90;7.40;;;;;;;-0.82;78.07;100574.61;105447;1262;59627;-79
2023/02/05 11:17:16;;;;;;;9.70;7.10;;;;;;;-0.71;77.90;100575.13;105652;1262;72825;-79
2023/02/05 11:20:07;;;;;;;9.80;7.50;;;;;;;-0.71;78.05;100575.52;105636;1258;68959;-78
2023/02/05 11:22:39;;;;;;;9.00;7.70;;;;;;;-0.75;78.12;100576.70;105626;1259;71607;-77
2023/02/05 11:25:17;;;;;;;10.50;8.30;;;;;;;-0.79;78.15;100573.60;105557;1258;59825;-78
2023/02/05 11:27:52;;;;;;;12.00;8.40;;;;;;;-0.78;78.41;100575.34;105568;1259;59647;-77
2023/02/05 11:30:34;;;;;;;12.00;7.40;;;;;;;-0.76;78.51;100578.01;105870;1259;71953;-79
2023/02/05 11:33:23;;;;;;;9.40;7.60;;;;;;;-0.64;78.17;100576.20;107682;1254;68313;-76
2023/02/05 11:35:56;;;;;;;10.90;7.90;;;;;;;-0.55;78.16;100576.29;106716;1257;72657;-77
2023/02/05 11:38:47;;;;;;;10.20;8.10;;;;;;;-0.55;78.43;100582.73;105905;1253;60830;-78
2023/02/05 11:41:27;;;;;;;10.80;8.10;;;;;;;-0.55;78.41;100582.55;106053;1253;60285;-78
2023/02/05 11:43:56;;;;;;;11.70;8.10;;;;;;;-0.56;78.44;100582.56;107902;1253;73296;-77
2023/02/05 11:46:26;;;;;;;11.80;9.00;;;;;;;-0.55;78.56;100582.52;108147;1253;69229;-78
2023/02/05 11:48:58;;;;;;;10.70;8.20;;;;;;;-0.55;78.66;100588.66;106935;1256;70437;-81
2023/02/05 11:51:28;;;;;;;11.40;8.50;;;;;;;-0.55;78.42;100590.39;105780;1253;60475;-78
2023/02/05 11:53:57;;;;;;;8.70;6.60;;;;;;;-0.48;78.34;100591.09;105830;1253;59714;-77
2023/02/05 11:56:25;;;;;;;9.50;7.20;;;;;;;-0.43;78.40;100594.08;105748;1256;73677;-77
2023/02/05 11:59:03;;;;;;;8.90;6.60;;;;;;;-0.44;78.76;100598.55;105991;1257;70624;-77
2023/02/05 12:01:32;;;;;;;10.60;7.70;;;;;;;-0.45;79.08;100597.34;105928;1253;72548;-76
2023/02/05 12:04:10;;;;;;;8.50;6.90;;;;;;;-0.45;79.10;100601.69;106192;1253;59720;-78
2023/02/05 12:06:41;;;;;;;8.80;7.30;;;;;;;-0.49;79.04;100605.20;106212;1253;59410;-78